Time;durP1;ratioP1;P1;durP2;ratioP2;P2;SDS_P1;SDS_P2;PMS_P1;PMS_P2;Temp;Humidity;BMP_temperature;BMP_pressure;BME280_temperature;BME280_humidity;BME280_pressure;Samples;Min_cycle;Max_cycle;Signal;HPM_P1;HPM_P2
2023/01/28 00:00:52;;;;;;;4.80;3.37;;;4.50;99.90;;;;;;7388851;19;20174;-77
2023/01/28 00:03:18;;;;;;;5.03;3.93;;;4.50;99.90;;;;;;7384577;19;20170;-76
2023/01/28 00:05:45;;;;;;;5.43;3.80;;;4.50;99.90;;;;;;7389660;19;20214;-76
2023/01/28 00:08:12;;;;;;;5.10;3.47;;;4.50;99.90;;;;;;7387251;19;20151;-76
2023/01/28 00:10:38;;;;;;;8.57;3.97;;;4.50;99.90;;;;;;7391215;19;20228;-76
2023/01/28 00:13:10;;;;;;;3.87;3.20;;;4.50;99.90;;;;;;7388063;19;20154;-75
2023/01/28 00:15:36;;;;;;;4.70;3.23;;;4.50;99.90;;;;;;7386961;19;20181;-76
2023/01/28 00:18:02;;;;;;;5.23;3.40;;;4.50;99.90;;;;;;7385073;19;20154;-76
2023/01/28 00:20:28;;;;;;;6.00;4.00;;;4.50;99.90;;;;;;7386794;19;20158;-77
2023/01/28 00:22:54;;;;;;;5.77;4.17;;;4.50;99.90;;;;;;7388890;19;20147;-76
2023/01/28 00:25:20;;;;;;;6.07;3.47;;;4.50;99.90;;;;;;7386471;19;20202;-76
2023/01/28 00:27:46;;;;;;;5.73;3.70;;;4.40;99.90;;;;;;7388993;19;20170;-75
2023/01/28 00:30:12;;;;;;;5.50;3.90;;;4.50;99.90;;;;;;7385699;19;20154;-76
2023/01/28 00:32:39;;;;;;;5.67;3.73;;;4.50;99.90;;;;;;7387879;19;20147;-77
2023/01/28 00:35:05;;;;;;;5.63;3.97;;;4.50;99.90;;;;;;7385216;19;20238;-75
2023/01/28 00:37:31;;;;;;;6.27;3.77;;;4.50;99.90;;;;;;7389213;19;20676;-76
2023/01/28 00:39:57;;;;;;;5.33;3.67;;;4.40;99.90;;;;;;7385536;19;20119;-76
2023/01/28 00:42:22;;;;;;;6.10;3.80;;;4.40;99.90;;;;;;7389006;19;20134;-76
2023/01/28 00:44:48;;;;;;;4.87;3.37;;;4.50;99.90;;;;;;7393370;19;20130;-75
2023/01/28 00:47:14;;;;;;;4.57;3.43;;;4.50;99.90;;;;;;7389611;19;20154;-77
2023/01/28 00:49:39;;;;;;;4.60;3.50;;;4.60;99.90;;;;;;7394668;19;20664;-76
2023/01/28 00:52:05;;;;;;;4.40;3.33;;;4.50;99.90;;;;;;7393065;19;20143;-76
2023/01/28 00:54:31;;;;;;;4.83;3.40;;;4.60;99.90;;;;;;7394195;19;20151;-77
2023/01/28 00:56:57;;;;;;;4.57;3.20;;;4.60;99.90;;;;;;7393137;19;20138;-77
2023/01/28 00:59:23;;;;;;;5.27;3.77;;;4.60;99.90;;;;;;7395288;19;20514;-76
2023/01/28 01:01:49;;;;;;;5.27;3.70;;;4.70;99.90;;;;;;7388371;19;20178;-76
2023/01/28 01:04:25;;;;;;;5.70;3.07;;;4.70;99.90;;;;;;7393142;19;20559;-75
2023/01/28 01:06:51;;;;;;;5.13;3.70;;;4.60;99.90;;;;;;7393444;19;20134;-76
2023/01/28 01:09:17;;;;;;;5.20;3.30;;;4.60;99.90;;;;;;7388182;19;20145;-76
2023/01/28 01:11:42;;;;;;;6.80;3.90;;;4.60;99.90;;;;;;7394108;19;20143;-76
2023/01/28 01:14:09;;;;;;;6.13;4.03;;;4.60;99.90;;;;;;7390546;19;20144;-76
2023/01/28 01:16:37;;;;;;;4.50;3.20;;;4.60;99.90;;;;;;7395046;19;20157;-76
2023/01/28 01:19:03;;;;;;;4.53;3.13;;;4.50;99.90;;;;;;7395116;19;20143;-76
2023/01/28 01:21:29;;;;;;;5.47;3.17;;;4.40;99.90;;;;;;7388700;19;20226;-76
2023/01/28 01:23:58;;;;;;;4.10;3.37;;;4.40;99.90;;;;;;7386789;19;20150;-76
2023/01/28 01:26:26;;;;;;;4.47;3.40;;;4.50;99.90;;;;;;7392197;19;20134;-77
2023/01/28 01:28:51;;;;;;;4.83;3.67;;;4.50;99.90;;;;;;7394783;19;20133;-76
2023/01/28 01:31:19;;;;;;;5.00;3.17;;;4.50;99.90;;;;;;7393252;19;20549;-77
2023/01/28 01:33:47;;;;;;;5.43;3.60;;;4.50;99.90;;;;;;7392680;19;20186;-77
2023/01/28 01:36:15;;;;;;;4.63;3.33;;;4.40;99.90;;;;;;7387778;19;20138;-76
2023/01/28 01:38:42;;;;;;;4.43;3.50;;;4.50;99.90;;;;;;7395567;19;20135;-75
2023/01/28 01:41:14;;;;;;;5.53;3.13;;;4.60;99.90;;;;;;7390360;19;20161;-76
2023/01/28 01:43:46;;;;;;;4.47;2.87;;;4.50;99.90;;;;;;7391575;19;20158;-77
2023/01/28 01:46:12;;;;;;;3.87;3.10;;;4.60;99.90;;;;;;7392987;19;20150;-75
2023/01/28 01:48:38;;;;;;;5.70;3.27;;;4.60;99.90;;;;;;7391993;19;20214;-76
2023/01/28 01:51:08;;;;;;;4.67;3.33;;;4.70;99.90;;;;;;7391173;19;20135;-77
2023/01/28 01:53:37;;;;;;;6.07;3.53;;;4.50;99.90;;;;;;7391130;19;20130;-76
2023/01/28 01:56:07;;;;;;;5.03;2.90;;;4.40;99.90;;;;;;7390242;19;20161;-76
2023/01/28 01:58:38;;;;;;;3.73;3.03;;;4.40;99.90;;;;;;7390983;19;20150;-75
2023/01/28 02:01:05;;;;;;;5.13;3.23;;;4.40;99.90;;;;;;7391616;19;20679;-76
2023/01/28 02:03:39;;;;;;;4.07;3.00;;;4.50;99.90;;;;;;7391898;19;20143;-76
2023/01/28 02:06:07;;;;;;;4.57;2.53;;;4.50;99.90;;;;;;7389195;19;20152;-76
2023/01/28 02:08:32;;;;;;;4.43;2.83;;;4.30;99.90;;;;;;7390870;19;20231;-76
2023/01/28 02:11:04;;;;;;;3.70;2.90;;;4.40;99.90;;;;;;7390770;19;20151;-77
2023/01/28 02:13:42;;;;;;;4.30;2.80;;;4.50;99.90;;;;;;7391473;19;20483;-75
2023/01/28 02:16:09;;;;;;;3.57;2.90;;;4.40;99.90;;;;;;7389177;19;20138;-76
2023/01/28 02:18:35;;;;;;;4.37;2.90;;;4.30;99.90;;;;;;7391998;19;20135;-76
2023/01/28 02:21:32;;;;;;;4.60;3.33;;;4.30;99.90;;;;;;7387532;19;20221;-76
2023/01/28 02:24:19;;;;;;;5.47;2.97;;;4.50;99.90;;;;;;7392980;19;20134;-76
2023/01/28 02:27:10;;;;;;;4.00;2.80;;;4.50;99.90;;;;;;7386220;19;20150;-76
2023/01/28 02:29:47;;;;;;;4.17;2.80;;;4.30;99.90;;;;;;7390858;19;20492;-76
2023/01/28 02:32:19;;;;;;;3.97;2.90;;;4.50;99.90;;;;;;7390334;19;20162;-76
2023/01/28 02:34:54;;;;;;;3.37;2.83;;;4.50;99.90;;;;;;7392862;19;20135;-76
2023/01/28 02:37:21;;;;;;;4.03;2.90;;;4.50;99.90;;;;;;7389858;19;20150;-76
2023/01/28 02:39:55;;;;;;;4.97;3.23;;;4.50;99.90;;;;;;7391390;19;20155;-77
2023/01/28 02:42:29;;;;;;;3.47;2.50;;;4.50;99.90;;;;;;7389672;19;20142;-76
2023/01/28 02:44:55;;;;;;;2.93;2.10;;;4.50;99.90;;;;;;7388708;19;20146;-76
2023/01/28 02:50:09;;;;;;;4.93;3.07;;;4.40;99.90;;;;;;7390287;19;20137;-75
2023/01/28 02:56:28;;;;;;;3.97;2.97;;;4.50;99.90;;;;;;7389533;19;20154;-76
2023/01/28 02:59:29;;;;;;;4.30;2.87;;;4.50;99.90;;;;;;7391562;19;20141;-76
2023/01/28 03:02:07;;;;;;;3.87;3.03;;;4.60;99.90;;;;;;7383442;19;20190;-76
2023/01/28 03:04:50;;;;;;;4.37;2.80;;;4.60;99.90;;;;;;7389687;19;20206;-77
2023/01/28 03:07:17;;;;;;;3.50;2.70;;;4.50;99.90;;;;;;7388028;19;20135;-76
2023/01/28 03:09:46;;;;;;;3.43;2.73;;;4.50;99.90;;;;;;7389157;19;20452;-76
2023/01/28 03:38:24;;;;;;;6.20;3.27;;;4.40;99.90;;;;;;7389971;19;20146;-76
2023/01/28 03:40:59;;;;;;;5.60;3.57;;;4.50;99.90;;;;;;7388365;19;20139;-76
2023/01/28 03:43:25;;;;;;;4.97;3.50;;;4.60;99.90;;;;;;7388265;19;20159;-76
2023/01/28 03:45:51;;;;;;;6.00;3.70;;;4.50;99.90;;;;;;7390271;19;20139;-76
2023/01/28 03:48:22;;;;;;;5.73;3.73;;;4.50;99.90;;;;;;7388159;19;20523;-76
2023/01/28 03:50:48;;;;;;;5.70;3.60;;;4.50;99.90;;;;;;7384711;19;20634;-76
2023/01/28 03:53:16;;;;;;;6.50;4.03;;;4.50;99.90;;;;;;7389867;19;20173;-75
2023/01/28 03:55:42;;;;;;;5.27;3.47;;;4.50;99.90;;;;;;7391244;19;20627;-76
2023/01/28 03:58:08;;;;;;;4.73;3.20;;;4.50;99.90;;;;;;7388240;19;20138;-77
2023/01/28 04:00:40;;;;;;;5.83;3.93;;;4.40;99.90;;;;;;7387683;19;21384;-75
2023/01/28 04:03:16;;;;;;;4.60;3.60;;;4.50;99.90;;;;;;7386352;19;20154;-77
2023/01/28 04:06:07;;;;;;;7.47;4.40;;;4.40;99.90;;;;;;7387445;19;20146;-75
2023/01/28 04:08:32;;;;;;;7.43;4.63;;;4.50;99.90;;;;;;7382206;19;20173;-75
2023/01/28 04:11:14;;;;;;;6.40;4.50;;;4.50;99.90;;;;;;7387149;19;20135;-76
2023/01/28 04:13:43;;;;;;;6.07;4.47;;;4.50;99.90;;;;;;7389100;19;20150;-75
2023/01/28 04:16:10;;;;;;;5.17;3.90;;;4.40;99.90;;;;;;7388749;19;20175;-76
2023/01/28 04:18:36;;;;;;;5.67;4.50;;;4.30;99.90;;;;;;7385280;19;20131;-77
2023/01/28 04:21:02;;;;;;;7.13;4.60;;;4.50;99.90;;;;;;7393229;19;20161;-77
2023/01/28 04:23:30;;;;;;;6.23;4.60;;;4.50;99.90;;;;;;7394049;19;20529;-76
2023/01/28 04:25:56;;;;;;;7.33;4.73;;;4.50;99.90;;;;;;7394800;19;20230;-76
2023/01/28 04:28:22;;;;;;;6.47;4.43;;;4.50;99.90;;;;;;7395902;19;20678;-76
2023/01/28 04:30:48;;;;;;;5.37;4.30;;;4.50;99.90;;;;;;7396337;19;20150;-76
2023/01/28 04:33:14;;;;;;;5.87;4.77;;;4.50;99.90;;;;;;7395430;19;20150;-76
2023/01/28 04:35:40;;;;;;;6.80;4.90;;;4.50;99.90;;;;;;7393170;19;20151;-76
2023/01/28 04:38:06;;;;;;;7.20;4.53;;;4.50;99.90;;;;;;7393977;19;20188;-76
2023/01/28 04:40:32;;;;;;;7.47;5.03;;;4.50;99.90;;;;;;7389646;19;20154;-76
2023/01/28 04:42:57;;;;;;;7.33;4.90;;;4.40;99.90;;;;;;7394540;19;20150;-77
2023/01/28 04:45:23;;;;;;;7.30;5.20;;;4.50;99.90;;;;;;7395906;19;20150;-76
2023/01/28 04:47:49;;;;;;;6.07;4.50;;;4.40;99.90;;;;;;7396545;19;20147;-76
2023/01/28 04:50:15;;;;;;;8.00;4.90;;;4.00;99.90;;;;;;7389757;19;20139;-76
2023/01/28 04:52:41;;;;;;;6.13;4.10;;;4.20;99.90;;;;;;7395359;19;20143;-76
2023/01/28 04:55:09;;;;;;;6.43;4.43;;;4.40;99.90;;;;;;7394477;19;20516;-77
2023/01/28 04:57:34;;;;;;;7.53;5.03;;;4.40;99.90;;;;;;7394130;19;20587;-76
2023/01/28 05:00:00;;;;;;;7.50;4.93;;;4.50;99.90;;;;;;7393773;19;20193;-76
2023/01/28 05:02:26;;;;;;;5.70;4.50;;;4.40;99.90;;;;;;7393157;19;20154;-77
2023/01/28 05:04:52;;;;;;;6.03;4.73;;;4.30;99.90;;;;;;7394136;19;20162;-77
2023/01/28 05:07:17;;;;;;;5.93;4.50;;;4.30;99.90;;;;;;7393766;19;20488;-76
2023/01/28 05:09:43;;;;;;;7.33;4.50;;;4.20;99.90;;;;;;7389702;19;20142;-76
2023/01/28 05:12:09;;;;;;;7.70;4.60;;;4.20;99.90;;;;;;7393144;19;20146;-75
2023/01/28 05:14:35;;;;;;;7.40;4.93;;;4.30;99.90;;;;;;7393711;19;20584;-76
2023/01/28 05:17:00;;;;;;;6.00;4.50;;;4.40;99.90;;;;;;7392929;19;20164;-76
2023/01/28 05:19:26;;;;;;;6.53;4.90;;;4.50;99.90;;;;;;7393286;19;20159;-76
2023/01/28 05:21:52;;;;;;;6.40;4.60;;;4.20;99.90;;;;;;7393522;19;20171;-76
2023/01/28 05:24:17;;;;;;;6.40;4.70;;;3.80;99.90;;;;;;7394161;19;20175;-75
2023/01/28 05:26:43;;;;;;;6.00;4.77;;;3.50;99.90;;;;;;7392661;19;20597;-76
2023/01/28 05:29:10;;;;;;;6.50;4.40;;;3.60;99.90;;;;;;7392189;19;20159;-76
2023/01/28 05:31:36;;;;;;;6.27;4.47;;;3.60;99.90;;;;;;7393576;19;20142;-76
2023/01/28 05:34:02;;;;;;;9.93;4.77;;;3.40;99.90;;;;;;7392984;19;20127;-76
2023/01/28 05:36:28;;;;;;;5.73;4.33;;;3.70;99.90;;;;;;7392438;19;20164;-76
2023/01/28 05:38:53;;;;;;;7.13;5.07;;;4.10;99.90;;;;;;7392312;19;20139;-77
2023/01/28 05:41:19;;;;;;;7.10;4.93;;;3.80;99.90;;;;;;7391285;19;20154;-77
2023/01/28 05:43:45;;;;;;;7.30;4.30;;;3.70;99.90;;;;;;7392738;19;20194;-76
2023/01/28 05:46:10;;;;;;;6.80;4.77;;;3.70;99.90;;;;;;7392115;19;20607;-77
2023/01/28 05:48:36;;;;;;;7.23;5.10;;;4.10;99.90;;;;;;7393992;19;20218;-77
2023/01/28 05:51:04;;;;;;;7.33;5.23;;;4.30;99.90;;;;;;7391584;19;20142;-77
2023/01/28 05:53:31;;;;;;;6.27;4.67;;;4.30;99.90;;;;;;7391266;19;20188;-77
2023/01/28 05:55:56;;;;;;;6.90;5.10;;;4.40;99.90;;;;;;7391454;19;20166;-76
2023/01/28 05:58:22;;;;;;;6.83;5.40;;;4.40;99.90;;;;;;7393089;19;20151;-76
2023/01/28 06:00:48;;;;;;;7.07;5.30;;;4.50;99.90;;;;;;7390044;19;20147;-76
2023/01/28 06:03:14;;;;;;;7.83;4.80;;;4.50;99.90;;;;;;7393990;19;20143;-77
2023/01/28 06:05:40;;;;;;;8.93;4.70;;;4.50;99.90;;;;;;7391647;19;20179;-76
2023/01/28 06:08:05;;;;;;;8.43;4.80;;;4.30;99.90;;;;;;7392089;19;20139;-76
2023/01/28 06:10:31;;;;;;;7.13;5.00;;;4.40;99.90;;;;;;7393039;19;20162;-76
2023/01/28 06:12:57;;;;;;;6.70;4.87;;;4.50;99.90;;;;;;7391128;19;20131;-77
2023/01/28 06:15:23;;;;;;;6.63;4.73;;;4.60;99.90;;;;;;7391305;19;20595;-77
2023/01/28 06:17:48;;;;;;;7.50;4.73;;;4.50;99.90;;;;;;7391124;19;20155;-76
2023/01/28 06:20:15;;;;;;;7.87;5.10;;;4.60;99.90;;;;;;7390944;19;20166;-76
2023/01/28 06:22:41;;;;;;;7.77;4.53;;;4.50;99.90;;;;;;7393851;19;20151;-76
2023/01/28 06:25:08;;;;;;;6.80;4.83;;;4.50;99.90;;;;;;7394764;19;20198;-76
2023/01/28 06:27:34;;;;;;;7.87;5.37;;;4.60;99.90;;;;;;7387749;19;20138;-76
2023/01/28 06:30:00;;;;;;;8.10;5.77;;;4.60;99.90;;;;;;7391654;19;20142;-76
2023/01/28 06:32:27;;;;;;;6.87;5.10;;;4.50;99.90;;;;;;7391615;19;20159;-76
2023/01/28 06:34:53;;;;;;;6.20;4.50;;;4.60;99.90;;;;;;7389386;19;20147;-77
2023/01/28 06:37:20;;;;;;;6.97;4.93;;;4.30;99.90;;;;;;7390722;19;20133;-77
2023/01/28 06:39:45;;;;;;;6.83;4.87;;;4.40;99.90;;;;;;7391031;19;20142;-77
2023/01/28 06:42:11;;;;;;;6.67;4.57;;;4.40;99.90;;;;;;7388424;19;20154;-77
2023/01/28 06:44:37;;;;;;;7.37;4.60;;;4.50;99.90;;;;;;7390247;19;20206;-77
2023/01/28 06:47:03;;;;;;;6.37;4.67;;;4.60;99.90;;;;;;7389842;19;20123;-76
2023/01/28 06:49:28;;;;;;;6.37;4.63;;;4.60;99.90;;;;;;7388978;19;20202;-76
2023/01/28 06:51:54;;;;;;;7.20;4.37;;;4.50;99.90;;;;;;7390436;19;20841;-76
2023/01/28 06:54:20;;;;;;;6.37;4.70;;;4.60;99.90;;;;;;7390988;19;20521;-77
2023/01/28 06:56:46;;;;;;;7.23;4.70;;;4.60;99.90;;;;;;7390110;19;20170;-76
2023/01/28 06:59:11;;;;;;;6.73;4.77;;;4.80;99.90;;;;;;7392097;19;20142;-76
2023/01/28 07:01:37;;;;;;;7.43;4.77;;;4.60;99.90;;;;;;7379944;19;20753;-77
2023/01/28 07:04:03;;;;;;;6.57;4.57;;;4.60;99.90;;;;;;7389529;19;20122;-75
2023/01/28 07:06:29;;;;;;;6.43;4.43;;;4.60;99.90;;;;;;7385605;19;20131;-77
2023/01/28 07:08:54;;;;;;;7.00;5.10;;;4.40;99.90;;;;;;7388785;19;20496;-78
2023/01/28 07:11:20;;;;;;;6.80;4.63;;;4.50;99.90;;;;;;7390125;19;20650;-77
2023/01/28 07:13:46;;;;;;;6.50;4.77;;;4.50;99.90;;;;;;7387636;19;20134;-76
2023/01/28 07:16:12;;;;;;;7.90;5.20;;;4.60;99.90;;;;;;7387146;19;20130;-76
2023/01/28 07:18:38;;;;;;;8.80;5.90;;;4.60;99.90;;;;;;7387186;19;20150;-77
2023/01/28 07:21:04;;;;;;;6.23;4.57;;;4.50;99.90;;;;;;7387708;19;20162;-76
2023/01/28 07:23:30;;;;;;;8.20;5.30;;;4.50;99.90;;;;;;7389241;19;20211;-78
2023/01/28 07:26:00;;;;;;;6.57;4.70;;;4.60;99.90;;;;;;7388198;19;20146;-77
2023/01/28 07:28:26;;;;;;;7.00;4.80;;;4.70;99.90;;;;;;7388754;19;20241;-76
2023/01/28 07:30:52;;;;;;;6.93;4.83;;;4.70;99.90;;;;;;7387797;19;20461;-77
2023/01/28 07:33:18;;;;;;;11.07;4.63;;;4.70;99.90;;;;;;7388227;19;20563;-78
2023/01/28 07:35:45;;;;;;;7.23;4.53;;;4.90;99.90;;;;;;7387875;19;20192;-80
2023/01/28 07:38:11;;;;;;;8.53;5.07;;;4.70;99.90;;;;;;7388047;19;20243;-77
2023/01/28 07:40:37;;;;;;;6.53;5.07;;;4.80;99.90;;;;;;7386533;19;20138;-77
2023/01/28 07:43:06;;;;;;;7.27;4.60;;;4.80;99.90;;;;;;7389137;19;20179;-77
2023/01/28 07:45:32;;;;;;;6.53;4.37;;;4.70;99.90;;;;;;7385028;19;20164;-77
2023/01/28 07:48:00;;;;;;;7.80;5.40;;;4.80;99.90;;;;;;7386182;19;20619;-77
2023/01/28 07:50:28;;;;;;;6.37;4.43;;;4.80;99.90;;;;;;7386054;19;20153;-76
2023/01/28 07:52:57;;;;;;;7.57;4.93;;;4.80;99.90;;;;;;7389564;19;20126;-76
2023/01/28 07:55:23;;;;;;;7.30;4.60;;;4.70;99.90;;;;;;7394743;19;20142;-77
2023/01/28 07:57:59;;;;;;;6.60;5.37;;;4.80;99.90;;;;;;7393918;19;20622;-75
2023/01/28 08:00:28;;;;;;;7.67;5.03;;;4.80;99.90;;;;;;7392546;19;20599;-76
2023/01/28 08:02:56;;;;;;;7.10;4.93;;;4.80;99.90;;;;;;7393946;19;20143;-75
2023/01/28 08:05:23;;;;;;;7.17;5.00;;;4.80;99.90;;;;;;7397475;19;20138;-73
2023/01/28 08:07:50;;;;;;;7.50;5.17;;;4.80;99.90;;;;;;7401316;19;20243;-75
2023/01/28 08:10:17;;;;;;;6.73;4.97;;;4.80;99.90;;;;;;7400021;19;20151;-76
2023/01/28 08:13:00;;;;;;;7.77;5.40;;;4.70;99.90;;;;;;7397904;19;20575;-75
2023/01/28 08:15:27;;;;;;;7.37;5.07;;;4.80;99.90;;;;;;7388917;19;20198;-76
2023/01/28 08:17:54;;;;;;;7.87;5.20;;;4.70;99.90;;;;;;7394070;19;20143;-76
2023/01/28 08:20:21;;;;;;;8.00;5.50;;;4.70;99.90;;;;;;7391283;19;20187;-78
2023/01/28 08:22:47;;;;;;;7.70;5.33;;;4.80;99.90;;;;;;7396072;19;20624;-77
2023/01/28 08:25:13;;;;;;;8.10;5.60;;;4.80;99.90;;;;;;7390647;19;20150;-79
2023/01/28 08:27:38;;;;;;;7.07;5.40;;;4.80;99.90;;;;;;7392860;19;20144;-77
2023/01/28 08:30:08;;;;;;;5.87;4.63;;;4.70;99.90;;;;;;7407744;19;20161;-76
2023/01/28 08:32:37;;;;;;;9.53;5.90;;;4.70;99.90;;;;;;7410854;19;20146;-78
2023/01/28 08:35:03;;;;;;;7.63;5.47;;;4.80;99.90;;;;;;7397251;19;20150;-72
2023/01/28 08:37:29;;;;;;;9.53;5.80;;;4.80;99.90;;;;;;7394790;19;20150;-77
2023/01/28 08:39:55;;;;;;;8.43;5.30;;;4.90;99.90;;;;;;7393233;19;20638;-74
2023/01/28 08:42:23;;;;;;;8.30;5.17;;;4.90;99.90;;;;;;7395807;19;20141;-76
2023/01/28 08:44:51;;;;;;;9.17;5.60;;;4.80;99.90;;;;;;7394884;19;20139;-73
2023/01/28 08:47:16;;;;;;;8.00;5.90;;;4.90;99.90;;;;;;7393752;19;20643;-75
2023/01/28 08:49:42;;;;;;;9.23;6.20;;;4.70;99.90;;;;;;7393534;19;20135;-73
2023/01/28 08:52:17;;;;;;;8.60;5.73;;;4.90;99.90;;;;;;7394606;19;20145;-77
2023/01/28 08:54:43;;;;;;;7.73;5.63;;;5.00;99.90;;;;;;7394016;19;20138;-74
2023/01/28 08:57:08;;;;;;;11.53;7.30;;;4.90;99.90;;;;;;7395860;19;20475;-74
2023/01/28 08:59:34;;;;;;;8.23;6.10;;;5.00;99.90;;;;;;7392882;19;20512;-74
2023/01/28 09:02:00;;;;;;;8.00;5.67;;;4.70;99.90;;;;;;7388942;19;20135;-73
2023/01/28 09:04:46;;;;;;;10.63;6.50;;;4.90;99.90;;;;;;7389705;19;20142;-73
2023/01/28 09:07:34;;;;;;;10.47;6.10;;;5.00;99.90;;;;;;7398485;19;20642;-73
2023/01/28 09:10:20;;;;;;;11.87;8.30;;;5.10;99.90;;;;;;7367187;19;20145;-74
2023/01/28 09:13:09;;;;;;;11.10;7.27;;;4.80;99.90;;;;;;7329417;19;20775;-75
2023/01/28 09:15:55;;;;;;;9.33;6.63;;;5.00;99.90;;;;;;7347494;19;20624;-74
2023/01/28 09:18:41;;;;;;;9.80;6.73;;;5.20;99.90;;;;;;7337448;19;20535;-75
2023/01/28 09:21:07;;;;;;;11.73;6.43;;;5.10;99.90;;;;;;7365511;19;20154;-73
2023/01/28 09:23:35;;;;;;;9.57;6.80;;;4.90;99.90;;;;;;7390095;19;20135;-72
2023/01/28 09:26:02;;;;;;;8.47;6.23;;;5.10;99.90;;;;;;7392646;19;20138;-73
2023/01/28 09:28:28;;;;;;;10.00;6.80;;;5.20;99.90;;;;;;7389215;19;20487;-74
2023/01/28 09:31:04;;;;;;;9.83;6.33;;;5.30;99.90;;;;;;7389158;19;20134;-72
2023/01/28 09:33:30;;;;;;;10.13;6.80;;;5.20;99.90;;;;;;7389721;19;20130;-73
2023/01/28 09:35:59;;;;;;;10.93;6.83;;;5.40;99.90;;;;;;7389910;19;20152;-74
2023/01/28 09:38:26;;;;;;;11.83;7.80;;;5.30;99.90;;;;;;7390468;19;20167;-73
2023/01/28 09:40:52;;;;;;;13.17;7.23;;;5.30;99.90;;;;;;7388392;19;20190;-73
2023/01/28 09:43:53;;;;;;;10.27;6.93;;;5.30;99.90;;;;;;7390158;19;20554;-73
2023/01/28 09:46:19;;;;;;;10.17;7.30;;;5.30;99.90;;;;;;7391182;19;20134;-73
2023/01/28 09:48:49;;;;;;;10.77;6.87;;;5.50;99.90;;;;;;7391004;19;20146;-72
2023/01/28 09:51:43;;;;;;;11.03;7.50;;;5.40;99.90;;;;;;7391323;19;20135;-72
2023/01/28 09:54:42;;;;;;;11.40;6.93;;;5.20;99.90;;;;;;7374857;19;20145;-75
2023/01/28 09:57:17;;;;;;;13.27;7.77;;;5.10;99.90;;;;;;7389499;19;20587;-73
2023/01/28 09:59:44;;;;;;;11.77;7.37;;;5.10;99.90;;;;;;7391236;19;20130;-72
2023/01/28 10:02:40;;;;;;;12.13;7.70;;;5.10;99.90;;;;;;7392143;19;20162;-74
2023/01/28 10:05:31;;;;;;;11.90;7.27;;;5.20;99.90;;;;;;7389326;19;20148;-72
2023/01/28 10:08:21;;;;;;;10.80;7.33;;;5.20;99.90;;;;;;7388428;19;20126;-74
2023/01/28 10:11:09;;;;;;;11.33;6.60;;;5.20;99.90;;;;;;7391257;19;20607;-73
2023/01/28 10:13:42;;;;;;;13.97;7.10;;;5.20;99.90;;;;;;7388524;19;20157;-74
2023/01/28 10:16:26;;;;;;;11.93;6.83;;;5.20;99.90;;;;;;7389870;19;20154;-74
2023/01/28 10:19:16;;;;;;;12.47;6.70;;;5.20;99.90;;;;;;7389233;19;20548;-71
2023/01/28 10:21:48;;;;;;;11.40;6.60;;;5.20;99.90;;;;;;7388580;19;20138;-73
2023/01/28 10:24:24;;;;;;;10.17;6.83;;;5.30;99.90;;;;;;7390057;19;20147;-74
2023/01/28 10:26:50;;;;;;;12.47;7.17;;;5.20;99.90;;;;;;7392288;19;20126;-74
2023/01/28 10:29:19;;;;;;;13.97;7.67;;;5.20;99.90;;;;;;7389895;19;20218;-74
2023/01/28 10:31:53;;;;;;;11.43;7.33;;;5.10;99.90;;;;;;7390365;19;20127;-75
2023/01/28 10:34:20;;;;;;;11.67;8.00;;;5.20;99.90;;;;;;7389739;19;20142;-74
2023/01/28 10:36:47;;;;;;;11.40;7.73;;;5.10;99.90;;;;;;7391181;19;20139;-74
2023/01/28 10:39:16;;;;;;;12.57;7.87;;;5.10;99.90;;;;;;7390135;19;20143;-74
2023/01/28 10:41:41;;;;;;;12.53;7.80;;;5.20;99.90;;;;;;7390610;19;20194;-73
2023/01/28 10:44:29;;;;;;;12.70;7.23;;;5.20;99.90;;;;;;7387140;19;20603;-72
2023/01/28 10:46:58;;;;;;;12.80;7.53;;;5.20;99.90;;;;;;7389261;19;20222;-73
2023/01/28 10:49:26;;;;;;;12.87;7.50;;;5.30;99.90;;;;;;7389468;19;20161;-74
2023/01/28 10:51:52;;;;;;;12.00;7.03;;;5.30;99.90;;;;;;7389829;19;20172;-73
2023/01/28 10:54:28;;;;;;;10.77;7.60;;;5.40;99.90;;;;;;7387044;19;20131;-74
2023/01/28 10:57:02;;;;;;;12.03;7.83;;;5.40;99.90;;;;;;7390505;19;20545;-75
2023/01/28 10:59:41;;;;;;;12.10;8.27;;;5.30;99.90;;;;;;7389439;19;20142;-76
2023/01/28 11:02:34;;;;;;;12.20;7.57;;;5.20;99.90;;;;;;7386072;19;20484;-75
2023/01/28 11:05:01;;;;;;;13.33;7.83;;;5.20;99.90;;;;;;7385422;19;20135;-75
2023/01/28 11:07:27;;;;;;;11.53;7.83;;;5.30;99.90;;;;;;7378514;19;20159;-75
2023/01/28 11:09:53;;;;;;;13.17;8.47;;;5.40;99.90;;;;;;7380861;19;20587;-76
2023/01/28 11:12:21;;;;;;;12.80;8.20;;;5.40;99.90;;;;;;7388493;19;20162;-74
2023/01/28 11:14:52;;;;;;;12.10;7.50;;;5.40;99.90;;;;;;7387221;19;20152;-75
2023/01/28 11:17:23;;;;;;;11.67;7.70;;;5.40;99.90;;;;;;7388519;19;20151;-76
2023/01/28 11:19:51;;;;;;;11.03;7.53;;;5.40;99.90;;;;;;7385671;19;20730;-75
2023/01/28 11:22:34;;;;;;;11.47;8.40;;;5.40;99.90;;;;;;7385350;19;20142;-76
2023/01/28 11:25:03;;;;;;;12.47;7.77;;;5.50;99.90;;;;;;7387040;19;20158;-75
2023/01/28 11:27:30;;;;;;;13.23;6.70;;;5.50;99.90;;;;;;7384185;19;20706;-76
2023/01/28 11:30:01;;;;;;;11.10;7.67;;;5.40;99.90;;;;;;7388760;19;20583;-76
2023/01/28 11:32:29;;;;;;;11.00;6.97;;;5.60;99.90;;;;;;7381887;19;20168;-76
2023/01/28 11:34:56;;;;;;;11.97;8.07;;;5.60;99.90;;;;;;7390541;19;20145;-76
2023/01/28 11:37:24;;;;;;;10.23;7.27;;;5.60;99.90;;;;;;7385962;19;20138;-74
2023/01/28 11:40:23;;;;;;;10.93;6.93;;;5.50;99.90;;;;;;7386345;19;20142;-75
2023/01/28 11:42:51;;;;;;;12.80;7.97;;;5.40;99.90;;;;;;7383384;19;20146;-77
2023/01/28 11:45:21;;;;;;;10.83;7.10;;;5.40;99.90;;;;;;7383246;19;20142;-74
2023/01/28 11:48:02;;;;;;;12.53;7.87;;;5.40;99.90;;;;;;7384411;19;20138;-75
2023/01/28 11:51:01;;;;;;;12.20;8.00;;;5.40;99.90;;;;;;7385565;19;20139;-76
2023/01/28 11:53:35;;;;;;;11.63;6.90;;;5.30;99.90;;;;;;7383672;19;20146;-75
2023/01/28 11:56:37;;;;;;;18.10;7.57;;;5.40;99.90;;;;;;7383808;19;20138;-79
2023/01/28 11:59:03;;;;;;;11.37;7.00;;;5.30;99.90;;;;;;7384822;19;20154;-74
2023/01/28 12:01:58;;;;;;;12.50;7.00;;;5.30;99.90;;;;;;7381183;19;20178;-76
2023/01/28 12:04:51;;;;;;;14.20;7.87;;;5.40;99.90;;;;;;7387233;19;20439;-74
2023/01/28 12:07:42;;;;;;;12.25;8.88;;;5.40;99.90;;;;;;7388645;19;20401;-70
2023/01/28 12:10:32;;;;;;;14.17;8.50;;;5.30;99.90;;;;;;7391335;19;20134;-71
2023/01/28 12:13:26;;;;;;;14.57;8.20;;;5.40;99.90;;;;;;7389387;19;20660;-73
2023/01/28 12:16:02;;;;;;;16.47;7.13;;;5.20;99.90;;;;;;7384883;19;20158;-71
2023/01/28 12:18:51;;;;;;;11.27;7.23;;;5.30;99.90;;;;;;7388670;19;20150;-70
2023/01/28 12:21:29;;;;;;;12.43;8.20;;;5.40;99.90;;;;;;7384179;19;20522;-72
2023/01/28 12:24:13;;;;;;;11.93;7.40;;;5.50;99.90;;;;;;7389419;19;20133;-71
2023/01/28 12:27:11;;;;;;;15.17;8.03;;;5.40;99.90;;;;;;7388277;19;20131;-72
2023/01/28 12:30:02;;;;;;;13.53;8.20;;;5.30;99.90;;;;;;7389189;19;20162;-70
2023/01/28 12:32:41;;;;;;;13.67;7.97;;;5.30;99.90;;;;;;7391068;19;20157;-72
2023/01/28 12:35:31;;;;;;;13.67;7.80;;;5.30;99.90;;;;;;7388955;19;20230;-72
2023/01/28 12:38:21;;;;;;;13.47;7.90;;;5.20;99.90;;;;;;7389206;19;20131;-71
2023/01/28 12:41:17;;;;;;;11.63;7.67;;;5.20;99.90;;;;;;7395155;19;20885;-72
2023/01/28 12:44:08;;;;;;;14.00;8.00;;;5.20;99.90;;;;;;7394856;19;20191;-70
2023/01/28 12:46:51;;;;;;;12.43;7.47;;;5.30;99.90;;;;;;7395038;19;20138;-73
2023/01/28 12:49:27;;;;;;;12.60;7.93;;;5.40;99.90;;;;;;7392874;19;20140;-71
2023/01/28 12:52:02;;;;;;;13.57;7.53;;;5.40;99.90;;;;;;7393219;19;20161;-71
2023/01/28 12:54:40;;;;;;;11.53;7.20;;;5.30;99.90;;;;;;7397635;19;20138;-72
2023/01/28 12:57:22;;;;;;;9.63;6.90;;;5.30;99.90;;;;;;7394498;19;20126;-71
2023/01/28 12:59:55;;;;;;;14.17;7.63;;;5.20;99.90;;;;;;7395433;19;20138;-71
2023/01/28 13:02:36;;;;;;;12.00;7.40;;;5.30;99.90;;;;;;7394669;19;20765;-71
2023/01/28 13:05:17;;;;;;;11.27;6.57;;;5.30;99.90;;;;;;7390139;19;20138;-72
2023/01/28 13:08:02;;;;;;;11.80;6.50;;;5.30;99.90;;;;;;7393015;19;20461;-71
2023/01/28 13:10:34;;;;;;;10.37;6.43;;;5.30;99.90;;;;;;7394765;19;20139;-72
2023/01/28 13:13:00;;;;;;;10.07;6.40;;;5.30;99.90;;;;;;7395090;19;20840;-71
2023/01/28 13:15:26;;;;;;;9.10;5.60;;;5.40;99.90;;;;;;7392250;19;20237;-71
2023/01/28 13:18:04;;;;;;;8.13;4.93;;;5.30;99.90;;;;;;7393526;19;20149;-72
2023/01/28 13:20:50;;;;;;;6.80;4.73;;;5.30;99.90;;;;;;7388934;19;20157;-71
2023/01/28 13:23:26;;;;;;;9.03;4.67;;;5.30;99.90;;;;;;7391133;19;20858;-71
2023/01/28 13:25:54;;;;;;;7.00;3.97;;;5.30;99.90;;;;;;7396509;19;20138;-72
2023/01/28 13:28:31;;;;;;;6.67;4.07;;;5.30;99.90;;;;;;7381578;19;20122;-71
2023/01/28 13:31:06;;;;;;;6.93;4.33;;;5.20;99.90;;;;;;7392052;19;20643;-70
2023/01/28 13:33:37;;;;;;;6.33;4.20;;;5.10;99.90;;;;;;7391959;19;20149;-72
2023/01/28 13:36:21;;;;;;;7.87;4.27;;;5.10;99.90;;;;;;7393038;19;20878;-71
2023/01/28 13:38:58;;;;;;;6.20;4.00;;;5.10;99.90;;;;;;7394594;19;20134;-70
2023/01/28 13:41:35;;;;;;;8.07;4.50;;;5.10;99.90;;;;;;7393754;19;20141;-71
2023/01/28 13:44:01;;;;;;;7.93;5.13;;;5.20;99.90;;;;;;7392394;19;20571;-72
2023/01/28 13:46:30;;;;;;;10.47;5.17;;;5.20;99.90;;;;;;7392547;19;20139;-71